createdAt,value
2022-10-21T00:00:40.352Z,12.82
2022-10-21T00:05:02.104Z,16.08
2022-10-21T00:09:24.186Z,13.32
2022-10-21T00:13:46.144Z,16.90
2022-10-21T00:18:08.151Z,14.45
2022-10-21T00:22:30.198Z,14.55
2022-10-21T00:26:52.409Z,15.43
2022-10-21T00:31:16.307Z,15.25
2022-10-21T00:35:38.379Z,18.10
2022-10-21T00:40:00.040Z,15.70
2022-10-21T00:44:22.170Z,14.73
2022-10-21T00:48:52.600Z,16.25
2022-10-21T00:53:17.183Z,15.73
2022-10-21T00:57:39.612Z,15.30
2022-10-21T01:02:01.840Z,14.35
2022-10-21T01:06:25.517Z,14.88
2022-10-21T01:10:47.747Z,14.93
2022-10-21T01:15:38.949Z,16.27
2022-10-21T01:20:26.952Z,16.88
2022-10-21T01:25:20.404Z,17.95
2022-10-21T01:30:26.116Z,15.45
2022-10-21T01:35:17.813Z,16.33
2022-10-21T01:39:52.243Z,13.55
2022-10-21T01:44:44.074Z,14.05
2022-10-21T01:49:18.279Z,16.45
2022-10-21T01:53:48.844Z,15.57
2022-10-21T01:58:21.516Z,13.50
2022-10-21T02:02:48.104Z,15.23
2022-10-21T02:07:09.909Z,15.15
2022-10-21T02:11:35.570Z,19.38
2022-10-21T02:16:03.781Z,15.00
2022-10-21T02:20:29.457Z,16.85
2022-10-21T02:24:54.870Z,15.50
2022-10-21T02:29:28.352Z,18.58
2022-10-21T02:34:30.123Z,14.40
2022-10-21T02:38:59.075Z,15.90
2022-10-21T02:43:27.519Z,13.23
2022-10-21T02:47:50.595Z,14.90
2022-10-21T02:52:12.519Z,16.90
2022-10-21T02:56:35.496Z,17.23
2022-10-21T03:00:57.678Z,15.35
2022-10-21T03:05:19.731Z,17.92
2022-10-21T03:09:41.864Z,16.10
2022-10-21T03:14:03.896Z,18.50
2022-10-21T03:18:25.823Z,14.00
2022-10-21T03:22:48.051Z,14.60
2022-10-21T03:27:09.854Z,16.65
2022-10-21T03:31:32.036Z,18.17
2022-10-21T03:35:54.768Z,13.98
2022-10-21T03:40:16.567Z,13.73
2022-10-21T03:44:38.245Z,15.65
2022-10-21T03:49:04.178Z,16.63
2022-10-21T03:53:42.769Z,16.80
2022-10-21T03:58:05.328Z,17.95
2022-10-21T04:02:27.602Z,16.80
2022-10-21T04:06:49.622Z,13.63
2022-10-21T04:11:11.501Z,15.00
2022-10-21T04:15:33.507Z,15.85
2022-10-21T04:19:55.480Z,15.43
2022-10-21T04:24:17.396Z,14.68
2022-10-21T04:28:39.438Z,17.35
2022-10-21T04:33:01.389Z,13.57
2022-10-21T04:37:23.563Z,15.13
2022-10-21T04:41:45.889Z,17.63
2022-10-21T04:46:12.265Z,16.73
2022-10-21T04:50:35.302Z,18.05
2022-10-21T04:54:56.936Z,14.52
2022-10-21T04:59:18.989Z,17.02
2022-10-21T05:03:40.928Z,16.25
2022-10-21T05:08:02.973Z,14.63
2022-10-21T05:12:25.001Z,15.13
2022-10-21T05:16:47.212Z,15.98
2022-10-21T05:21:09.191Z,16.90
2022-10-21T05:25:34.174Z,19.20
2022-10-21T05:29:58.405Z,19.67
2022-10-21T05:34:20.277Z,23.63
2022-10-21T05:38:42.156Z,26.13
2022-10-21T05:43:04.011Z,22.55
2022-10-21T05:47:25.918Z,21.23
2022-10-21T05:51:47.834Z,25.90
2022-10-21T05:56:09.428Z,27.85
2022-10-21T06:00:31.484Z,23.17
2022-10-21T06:04:53.218Z,19.35
2022-10-21T06:09:15.176Z,21.08
2022-10-21T06:18:17.161Z,16.63
2022-10-21T06:22:39.002Z,21.83
2022-10-21T06:27:01.022Z,19.48
2022-10-21T06:31:23.052Z,16.60
2022-10-21T06:35:44.935Z,16.30
2022-10-21T06:40:07.256Z,21.40
2022-10-21T06:44:29.338Z,16.13
2022-10-21T06:48:51.147Z,14.43
2022-10-21T06:53:13.077Z,16.92
2022-10-21T06:57:35.157Z,19.17
2022-10-21T07:02:01.332Z,16.42
2022-10-21T07:06:23.416Z,14.05
2022-10-21T07:10:46.113Z,16.60
2022-10-21T07:15:08.489Z,15.95
2022-10-21T07:19:30.131Z,14.45
2022-10-21T07:23:56.509Z,13.30
2022-10-21T07:28:20.703Z,13.02
2022-10-21T07:32:42.994Z,13.45
2022-10-21T07:37:04.904Z,14.48
2022-10-21T07:41:34.495Z,13.82
2022-10-21T07:46:01.867Z,13.02
2022-10-21T07:50:26.518Z,17.00
2022-10-21T07:54:48.579Z,13.18
2022-10-21T07:59:13.444Z,15.90
2022-10-21T08:03:35.501Z,12.05
2022-10-21T08:07:59.003Z,12.75
2022-10-21T08:12:20.822Z,13.55
2022-10-21T08:16:42.548Z,12.98
2022-10-21T08:21:05.222Z,12.23
2022-10-21T08:25:30.143Z,13.40
2022-10-21T08:29:52.066Z,9.35
2022-10-21T08:34:14.218Z,10.35
2022-10-21T08:38:36.542Z,11.07
2022-10-21T08:43:17.202Z,13.40
2022-10-21T08:47:48.478Z,11.13
2022-10-21T08:52:17.263Z,13.35
2022-10-21T08:56:38.909Z,10.75
2022-10-21T09:01:31.720Z,10.77
2022-10-21T09:06:10.867Z,11.50
2022-10-21T09:11:00.462Z,11.30
2022-10-21T09:15:33.115Z,10.93
2022-10-21T09:20:23.578Z,8.90
2022-10-21T09:25:19.019Z,10.98
2022-10-21T09:29:46.893Z,10.13
2022-10-21T09:34:31.232Z,10.93
2022-10-21T09:39:12.679Z,15.48
2022-10-21T09:43:34.482Z,10.07
2022-10-21T09:48:22.591Z,10.45
2022-10-21T09:53:02.840Z,14.35
2022-10-21T09:58:01.936Z,13.38
2022-10-21T10:02:50.047Z,12.35
2022-10-21T10:07:36.815Z,12.25
2022-10-21T10:12:02.776Z,11.43
2022-10-21T10:16:31.124Z,14.05
2022-10-21T10:21:12.987Z,16.17
2022-10-21T10:25:38.663Z,10.15
2022-10-21T10:30:02.134Z,12.90
2022-10-21T10:34:38.704Z,18.08
2022-10-21T10:39:02.625Z,11.75
2022-10-21T10:43:29.917Z,19.45
2022-10-21T10:48:03.329Z,11.82
2022-10-21T10:52:26.321Z,12.15
2022-10-21T10:57:11.565Z,10.93
2022-10-21T11:01:43.163Z,14.40
2022-10-21T11:06:21.747Z,14.27
2022-10-21T11:10:57.537Z,14.27
2022-10-21T11:15:43.803Z,13.57
2022-10-21T11:20:40.634Z,15.68
2022-10-21T11:25:48.895Z,15.85
2022-10-21T11:30:20.884Z,12.15
2022-10-21T11:35:38.909Z,15.13
2022-10-21T11:40:16.111Z,12.82
2022-10-21T11:45:06.546Z,16.08
2022-10-21T11:50:07.564Z,13.90
2022-10-21T11:55:08.624Z,14.95
2022-10-21T12:00:33.780Z,15.50
2022-10-21T12:05:11.657Z,17.00
2022-10-21T12:09:54.153Z,17.05
2022-10-21T12:14:38.324Z,20.73
2022-10-21T12:19:06.935Z,19.77
2022-10-21T12:23:31.268Z,19.65
2022-10-21T12:28:17.104Z,22.20
2022-10-21T12:33:08.725Z,22.98
2022-10-21T12:37:52.677Z,22.27
2022-10-21T12:42:19.018Z,19.48
2022-10-21T12:46:48.350Z,24.63
2022-10-21T12:51:28.604Z,22.40
2022-10-21T12:55:55.257Z,25.35
2022-10-21T13:00:37.104Z,24.10
2022-10-21T13:04:59.212Z,27.38
2022-10-21T13:09:52.105Z,25.73
2022-10-21T13:14:16.585Z,28.02
2022-10-21T13:18:59.638Z,23.65
2022-10-21T13:23:37.201Z,21.83
2022-10-21T13:28:13.532Z,28.65
2022-10-21T13:32:37.684Z,26.70
2022-10-21T13:37:00.395Z,28.55
2022-10-21T13:41:27.854Z,30.17
2022-10-21T13:45:57.122Z,26.13
2022-10-21T13:50:31.017Z,26.80
2022-10-21T13:55:01.373Z,25.60
2022-10-21T13:59:30.041Z,28.50
2022-10-21T14:03:54.067Z,29.40
2022-10-21T14:08:40.002Z,26.80
2022-10-21T14:13:04.269Z,29.33
2022-10-21T14:17:27.614Z,28.50
2022-10-21T14:21:54.109Z,32.65
2022-10-21T14:26:16.429Z,27.95
2022-10-21T14:30:39.482Z,39.60
2022-10-21T14:35:26.435Z,33.72
2022-10-21T14:39:48.172Z,30.38
2022-10-21T14:44:31.523Z,33.53
2022-10-21T14:49:04.792Z,31.75
2022-10-21T14:53:33.317Z,33.17
2022-10-21T14:58:14.574Z,30.15
2022-10-21T15:02:38.703Z,30.38
2022-10-21T15:07:01.872Z,28.67
2022-10-21T15:11:26.657Z,31.98
2022-10-21T15:15:55.949Z,32.30
2022-10-21T15:20:17.722Z,29.92
2022-10-21T15:24:40.395Z,31.70
2022-10-21T15:29:14.503Z,29.73
2022-10-21T15:33:36.042Z,28.85
2022-10-21T15:37:58.154Z,29.42
2022-10-21T15:42:20.339Z,29.15
2022-10-21T15:46:47.063Z,32.45
2022-10-21T15:51:09.288Z,27.30
2022-10-21T15:55:36.359Z,27.88
2022-10-21T15:59:58.491Z,27.33
2022-10-21T16:04:20.815Z,28.30
2022-10-21T16:08:42.984Z,33.15
2022-10-21T16:13:05.085Z,25.75
2022-10-21T16:17:28.704Z,26.58
2022-10-21T16:21:50.887Z,25.80
2022-10-21T16:26:23.846Z,27.15
2022-10-21T16:30:45.501Z,25.98
2022-10-21T16:35:12.333Z,26.60
2022-10-21T16:39:34.432Z,25.80
2022-10-21T16:43:56.458Z,29.25
2022-10-21T16:48:18.534Z,23.38
2022-10-21T16:52:40.701Z,23.13
2022-10-21T16:57:06.177Z,21.13
2022-10-21T17:01:29.080Z,25.02
2022-10-21T17:05:52.486Z,26.25
2022-10-21T17:10:14.184Z,22.45
2022-10-21T17:14:36.286Z,17.95
2022-10-21T17:18:58.382Z,20.42
2022-10-21T17:23:19.960Z,18.80
2022-10-21T17:27:42.157Z,17.40
2022-10-21T17:32:05.594Z,18.95
2022-10-21T17:36:27.642Z,16.27
2022-10-21T17:40:49.611Z,17.23
2022-10-21T17:45:13.110Z,16.48
2022-10-21T17:49:35.150Z,15.32
2022-10-21T17:53:57.285Z,16.52
2022-10-21T17:58:19.601Z,14.82
2022-10-21T18:02:41.933Z,14.40
2022-10-21T18:07:07.223Z,14.32
2022-10-21T18:11:31.481Z,14.13
2022-10-21T18:15:54.535Z,14.27
2022-10-21T18:20:17.208Z,16.08
2022-10-21T18:24:39.349Z,13.98
2022-10-21T18:29:05.133Z,17.15
2022-10-21T18:33:28.212Z,17.35
2022-10-21T18:37:52.310Z,14.40
2022-10-21T18:42:14.756Z,13.32
2022-10-21T18:46:40.126Z,16.45
2022-10-21T18:51:10.468Z,15.63
2022-10-21T18:55:32.488Z,16.35
2022-10-21T18:59:54.966Z,18.25
2022-10-21T19:04:16.834Z,14.35
2022-10-21T19:08:39.069Z,18.75
2022-10-21T19:13:00.641Z,14.85
2022-10-21T19:17:23.618Z,15.68
2022-10-21T19:21:45.611Z,14.73
2022-10-21T19:26:10.375Z,17.38
2022-10-21T19:30:32.376Z,16.23
2022-10-21T19:34:54.053Z,14.88
2022-10-21T19:39:16.994Z,15.48
2022-10-21T19:43:39.637Z,16.23
2022-10-21T19:48:01.993Z,18.98
2022-10-21T19:52:23.611Z,17.13
2022-10-21T19:56:45.493Z,17.48
2022-10-21T20:01:14.057Z,16.70
2022-10-21T20:05:40.509Z,16.65
2022-10-21T20:10:02.408Z,19.67
2022-10-21T20:14:24.085Z,20.33
2022-10-21T20:18:46.615Z,18.80
2022-10-21T20:23:08.605Z,21.73
2022-10-21T20:27:30.556Z,19.60
2022-10-21T20:31:52.519Z,21.02
2022-10-21T20:36:19.227Z,19.92
2022-10-21T20:40:40.978Z,16.10
2022-10-21T20:45:04.300Z,16.33
2022-10-21T20:49:26.274Z,19.13
2022-10-21T20:54:01.044Z,17.02
2022-10-21T20:58:22.700Z,15.43
2022-10-21T21:02:44.910Z,15.95
2022-10-21T21:07:07.024Z,16.77
2022-10-21T21:11:29.508Z,17.55
2022-10-21T21:15:51.122Z,14.68
2022-10-21T21:20:13.101Z,17.98
2022-10-21T21:24:35.048Z,14.70
2022-10-21T21:28:57.668Z,14.90
2022-10-21T21:33:19.446Z,14.90
2022-10-21T21:37:41.395Z,13.88
2022-10-21T21:42:03.538Z,14.48
2022-10-21T21:46:26.256Z,15.13
2022-10-21T21:50:50.431Z,14.45
2022-10-21T21:55:12.066Z,13.55
2022-10-21T21:59:34.295Z,13.30
2022-10-21T22:03:56.663Z,15.40
2022-10-21T22:08:18.222Z,13.98
2022-10-21T22:12:40.498Z,16.10
2022-10-21T22:17:02.262Z,13.93
2022-10-21T22:21:24.974Z,15.65
2022-10-21T22:25:48.970Z,14.07
2022-10-21T22:30:16.692Z,14.73
2022-10-21T22:34:39.435Z,16.45
2022-10-21T22:39:04.255Z,13.77
2022-10-21T22:43:27.309Z,13.55
2022-10-21T22:47:49.358Z,17.90
2022-10-21T22:52:11.383Z,15.13
2022-10-21T22:56:33.390Z,14.45
2022-10-21T23:05:22.934Z,18.50
2022-10-21T23:09:44.563Z,15.32
2022-10-21T23:14:08.787Z,15.95
2022-10-21T23:18:31.148Z,16.95
2022-10-21T23:22:53.075Z,14.50
2022-10-21T23:27:15.371Z,12.27
2022-10-21T23:31:37.260Z,13.65
2022-10-21T23:35:59.425Z,19.38
2022-10-21T23:40:21.795Z,16.02
2022-10-21T23:44:43.638Z,13.88
2022-10-21T23:49:06.083Z,16.70
2022-10-21T23:53:27.930Z,12.80
2022-10-21T23:57:49.916Z,13.23
